Time;durP1;ratioP1;P1;durP2;ratioP2;P2;SDS_P1;SDS_P2;PMS_P1;PMS_P2;Temp;Humidity;BMP_temperature;BMP_pressure;BME280_temperature;BME280_humidity;BME280_pressure;Samples;Min_cycle;Max_cycle;Signal;HPM_P1;HPM_P2
2024/02/15 00:01:59;;;;;;;2.10;1.00;;;;;;;11.19;68.53;100221.00;10224468;28;20054;-67
2024/02/15 00:07:01;;;;;;;1.17;1.05;;;;;;;11.04;68.66;100214.03;10224821;28;20121;-67
2024/02/15 00:12:04;;;;;;;2.38;1.20;;;;;;;11.08;68.78;100214.69;10225551;28;20620;-66
2024/02/15 00:17:07;;;;;;;1.90;0.98;;;;;;;11.05;68.68;100215.72;10224991;28;20412;-67
2024/02/15 00:22:09;;;;;;;2.45;1.30;;;;;;;10.99;68.85;100225.69;10226209;28;20043;-66
2024/02/15 00:27:12;;;;;;;1.70;1.13;;;;;;;10.89;69.02;100224.50;10225863;28;20051;-66
2024/02/15 00:32:14;;;;;;;2.55;1.00;;;;;;;10.93;69.23;100223.41;10226259;28;20055;-66
2024/02/15 00:37:16;;;;;;;2.10;1.30;;;;;;;11.07;68.98;100213.84;10223980;28;20488;-67
2024/02/15 00:42:18;;;;;;;4.00;1.20;;;;;;;11.16;68.87;100218.56;10222216;28;20120;-66
2024/02/15 00:47:21;;;;;;;4.97;1.77;;;;;;;11.23;68.48;100221.69;10225439;28;20047;-68
2024/02/15 00:52:23;;;;;;;1.00;0.95;;;;;;;11.27;68.58;100226.63;10225995;28;20506;-67
2024/02/15 00:57:25;;;;;;;2.72;1.55;;;;;;;11.23;68.62;100230.38;10224012;28;20498;-67
2024/02/15 01:02:27;;;;;;;1.40;1.10;;;;;;;11.21;68.44;100226.16;10224126;28;20415;-66
2024/02/15 01:07:29;;;;;;;3.80;1.40;;;;;;;11.20;68.58;100225.31;10224034;28;20055;-67
2024/02/15 01:12:32;;;;;;;1.55;1.10;;;;;;;11.37;68.43;100228.72;10224491;29;20405;-68
2024/02/15 01:17:35;;;;;;;2.75;1.23;;;;;;;11.46;68.08;100226.41;10224645;28;20138;-67
2024/02/15 01:22:39;;;;;;;4.40;1.20;;;;;;;11.25;68.05;100231.13;10216947;28;20061;-68
2024/02/15 01:27:41;;;;;;;2.65;1.27;;;;;;;11.19;68.36;100230.66;10224546;28;20043;-68
2024/02/15 01:32:43;;;;;;;1.55;1.15;;;;;;;11.21;68.23;100221.75;10221284;28;20051;-68
2024/02/15 01:37:45;;;;;;;5.47;2.15;;;;;;;11.23;67.96;100214.66;10224790;28;20055;-68
2024/02/15 01:42:49;;;;;;;1.83;1.20;;;;;;;11.18;67.77;100211.47;10224136;28;20108;-68
2024/02/15 01:47:53;;;;;;;7.75;1.77;;;;;;;10.81;68.60;100227.53;10223050;28;20411;-68
2024/02/15 01:52:57;;;;;;;9.65;2.42;;;;;;;10.61;69.01;100224.34;10229352;28;20530;-67
2024/02/15 01:58:01;;;;;;;3.90;1.40;;;;;;;10.64;69.08;100227.66;10229310;28;20086;-68
2024/02/15 02:03:05;;;;;;;2.67;1.38;;;;;;;10.70;68.96;100222.09;10230282;28;20050;-68
2024/02/15 02:08:09;;;;;;;5.45;1.40;;;;;;;10.68;68.75;100220.47;10228835;28;20158;-68
2024/02/15 02:13:11;;;;;;;1.73;1.23;;;;;;;10.74;68.67;100214.91;10229938;28;20051;-69
2024/02/15 02:18:13;;;;;;;2.45;1.30;;;;;;;10.86;68.45;100214.22;10230900;28;20065;-72
2024/02/15 02:23:19;;;;;;;2.22;1.15;;;;;;;10.92;68.35;100212.09;10227395;28;20039;-72
2024/02/15 02:28:22;;;;;;;2.60;1.35;;;;;;;10.99;68.59;100207.38;10228207;28;20051;-67
2024/02/15 02:33:28;;;;;;;2.28;1.30;;;;;;;11.09;68.58;100195.47;10227568;28;20117;-68
2024/02/15 02:38:30;;;;;;;1.75;1.13;;;;;;;11.24;68.64;100200.66;10225918;28;20110;-68
2024/02/15 02:43:32;;;;;;;2.35;1.20;;;;;;;11.15;68.67;100193.31;10229940;28;20082;-68
2024/02/15 02:48:34;;;;;;;1.90;1.40;;;;;;;11.14;68.58;100199.50;10228413;28;20308;-68
2024/02/15 02:53:37;;;;;;;2.15;1.55;;;;;;;11.14;68.71;100194.25;10228392;28;20134;-68
2024/02/15 02:58:42;;;;;;;2.70;1.42;;;;;;;11.19;68.64;100194.81;10228925;28;20051;-68
2024/02/15 03:03:44;;;;;;;4.65;1.17;;;;;;;11.22;68.65;100189.41;10226913;28;20130;-68
2024/02/15 03:08:47;;;;;;;3.42;1.65;;;;;;;11.22;68.58;100184.19;10227019;28;20746;-68
2024/02/15 03:13:49;;;;;;;1.50;1.02;;;;;;;11.11;69.25;100178.72;10224667;28;20130;-67
2024/02/15 03:18:52;;;;;;;3.10;1.50;;;;;;;11.12;69.15;100177.81;10228949;28;20412;-68
2024/02/15 03:23:55;;;;;;;1.67;1.20;;;;;;;11.13;69.29;100170.81;10228590;28;20943;-67
2024/02/15 03:28:57;;;;;;;2.75;1.40;;;;;;;11.10;69.32;100161.34;10229765;28;20047;-68
2024/02/15 03:33:59;;;;;;;5.20;1.63;;;;;;;11.13;69.31;100161.16;10227083;28;20055;-67
2024/02/15 03:39:01;;;;;;;1.63;1.10;;;;;;;11.27;69.16;100160.38;10226487;28;20079;-67
2024/02/15 03:44:03;;;;;;;2.55;1.30;;;;;;;11.24;69.11;100164.00;10226314;28;20051;-67
2024/02/15 03:49:07;;;;;;;7.20;2.53;;;;;;;11.26;69.07;100164.75;10226096;28;20078;-67
2024/02/15 03:54:09;;;;;;;2.72;1.17;;;;;;;11.27;69.15;100169.03;10225566;28;20054;-67
2024/02/15 03:59:13;;;;;;;2.60;1.50;;;;;;;11.32;69.23;100170.56;10226452;28;20047;-67
2024/02/15 04:04:15;;;;;;;1.40;0.95;;;;;;;11.36;68.87;100177.31;10225222;28;20492;-67
2024/02/15 04:09:18;;;;;;;1.83;1.13;;;;;;;11.25;69.31;100173.50;10224311;28;20052;-67
2024/02/15 04:14:20;;;;;;;3.05;1.33;;;;;;;11.35;69.11;100167.75;10225452;28;20051;-67
2024/02/15 04:19:22;;;;;;;3.15;1.40;;;;;;;11.44;69.04;100165.41;10225815;28;20132;-67
2024/02/15 04:24:25;;;;;;;1.50;1.00;;;;;;;11.53;68.65;100162.28;10207816;28;20062;-67
2024/02/15 04:29:27;;;;;;;3.83;1.48;;;;;;;11.65;68.55;100168.53;10225631;28;20438;-67
2024/02/15 04:34:33;;;;;;;0.98;0.90;;;;;;;11.70;68.36;100148.97;10224000;28;20043;-67
2024/02/15 04:39:36;;;;;;;2.05;0.90;;;;;;;11.73;68.20;100143.56;10225392;28;20074;-67
2024/02/15 04:44:39;;;;;;;2.70;1.00;;;;;;;11.69;68.16;100144.69;10208252;28;20126;-67
2024/02/15 04:49:42;;;;;;;3.60;1.25;;;;;;;11.63;67.81;100155.53;10225868;28;20487;-67
2024/02/15 04:54:45;;;;;;;2.75;0.93;;;;;;;11.46;68.16;100150.47;10206499;29;20308;-67
2024/02/15 04:59:48;;;;;;;2.03;1.05;;;;;;;11.34;68.29;100147.75;10224279;28;20481;-68
2024/02/15 05:04:56;;;;;;;2.25;1.13;;;;;;;11.34;68.21;100153.00;10224165;28;20039;-67
2024/02/15 05:09:58;;;;;;;2.42;1.05;;;;;;;11.34;68.14;100150.38;10224682;28;20043;-67
2024/02/15 05:15:00;;;;;;;3.15;1.40;;;;;;;11.28;68.00;100159.41;10223751;28;20089;-68
2024/02/15 05:20:10;;;;;;;1.88;1.30;;;;;;;11.16;68.11;100149.66;10221838;28;20077;-67
2024/02/15 05:25:12;;;;;;;2.33;1.20;;;;;;;11.08;68.16;100142.28;10226484;28;20055;-67
2024/02/15 05:30:14;;;;;;;1.92;1.15;;;;;;;11.03;68.57;100141.66;10229919;28;20065;-67
2024/02/15 05:35:17;;;;;;;1.83;1.15;;;;;;;10.96;68.29;100142.09;10231966;28;20423;-68
2024/02/15 05:40:19;;;;;;;3.45;1.10;;;;;;;10.77;68.72;100142.31;10230696;28;20051;-67
2024/02/15 05:45:29;;;;;;;2.70;1.20;;;;;;;10.52;68.87;100147.25;10228935;29;20055;-68
2024/02/15 05:50:31;;;;;;;3.40;1.10;;;;;;;10.43;69.02;100153.84;10230263;28;20097;-67
2024/02/15 05:55:35;;;;;;;8.95;2.33;;;;;;;10.40;69.08;100153.16;10230384;28;20388;-67
2024/02/15 06:00:38;;;;;;;4.53;1.20;;;;;;;10.37;69.15;100148.09;10230424;28;20570;-68
2024/02/15 06:05:42;;;;;;;1.20;1.10;;;;;;;10.39;69.29;100152.31;10230701;28;20055;-67
2024/02/15 06:10:44;;;;;;;2.05;1.23;;;;;;;10.38;69.06;100149.78;10232005;28;20426;-68
2024/02/15 06:15:47;;;;;;;4.60;1.90;;;;;;;10.39;68.98;100149.72;10229874;28;20408;-67
2024/02/15 06:20:50;;;;;;;2.47;1.50;;;;;;;10.35;68.96;100145.59;10229244;28;20055;-68
2024/02/15 06:25:57;;;;;;;2.67;1.30;;;;;;;10.31;68.89;100143.22;10230162;28;20161;-67
2024/02/15 06:41:41;;;;;;;1.90;1.50;;;;;;;10.26;68.75;100142.63;10230032;28;21108;-67
2024/02/15 06:46:43;;;;;;;2.80;1.42;;;;;;;10.27;68.46;100146.94;10229339;28;20495;-68
2024/02/15 06:51:49;;;;;;;4.68;2.13;;;;;;;10.20;68.71;100143.81;10230739;28;20051;-67
2024/02/15 06:56:54;;;;;;;3.13;1.80;;;;;;;10.06;68.53;100155.91;10232514;28;20043;-67
2024/02/15 07:01:58;;;;;;;5.13;1.73;;;;;;;9.98;68.86;100155.50;10229210;28;20681;-68
2024/02/15 07:07:01;;;;;;;3.70;2.03;;;;;;;10.02;68.98;100157.00;10227623;29;20442;-67
2024/02/15 07:12:04;;;;;;;3.13;1.95;;;;;;;10.08;68.65;100164.53;10228309;28;20079;-68
2024/02/15 07:17:06;;;;;;;2.90;1.92;;;;;;;10.11;68.50;100164.38;10229082;28;20047;-60
2024/02/15 07:22:09;;;;;;;3.55;1.90;;;;;;;10.24;68.49;100157.53;10228078;28;20056;-60
2024/02/15 07:27:11;;;;;;;3.17;1.88;;;;;;;10.42;68.32;100166.97;10227601;28;20408;-60
2024/02/15 07:32:14;;;;;;;4.38;2.00;;;;;;;10.60;68.18;100168.59;10227597;28;20047;-60
2024/02/15 07:37:17;;;;;;;3.95;2.00;;;;;;;10.77;67.99;100173.69;10227314;28;20078;-60
2024/02/15 07:42:19;;;;;;;6.00;2.95;;;;;;;10.88;67.74;100167.88;10226658;28;20051;-59
2024/02/15 07:47:24;;;;;;;7.35;2.60;;;;;;;10.85;67.57;100174.09;10225977;28;20043;-60
2024/02/15 07:52:26;;;;;;;4.97;2.38;;;;;;;10.89;67.32;100180.84;10226239;28;20045;-60
2024/02/15 07:57:28;;;;;;;4.13;2.10;;;;;;;10.92;67.33;100179.84;10226339;28;20077;-60
2024/02/15 08:02:30;;;;;;;5.88;2.10;;;;;;;11.07;67.31;100171.97;10225258;28;20043;-60
2024/02/15 08:07:35;;;;;;;2.72;1.80;;;;;;;11.25;67.11;100170.91;10226241;28;20065;-60
2024/02/15 08:12:37;;;;;;;3.40;1.88;;;;;;;11.42;67.01;100167.28;10224279;28;20571;-61
2024/02/15 08:17:46;;;;;;;3.28;1.92;;;;;;;11.53;66.76;100179.75;10226754;28;20054;-60
2024/02/15 08:22:48;;;;;;;3.30;1.75;;;;;;;11.59;66.90;100168.91;10224857;29;20039;-59
2024/02/15 08:27:50;;;;;;;3.78;2.33;;;;;;;11.66;66.63;100183.34;10226477;28;20051;-60
2024/02/15 08:32:54;;;;;;;6.30;2.75;;;;;;;11.71;66.70;100176.03;10226470;28;20044;-59
2024/02/15 08:37:57;;;;;;;4.47;2.88;;;;;;;11.81;66.41;100164.91;10226708;28;20153;-60
2024/02/15 08:42:59;;;;;;;3.38;2.33;;;;;;;11.93;66.22;100168.53;10222374;28;20129;-59
2024/02/15 08:48:04;;;;;;;5.60;3.10;;;;;;;12.02;66.13;100167.97;10227562;28;20067;-59
2024/02/15 08:53:07;;;;;;;21.90;10.23;;;;;;;12.15;65.98;100164.50;10221181;28;20047;-60
2024/02/15 08:58:09;;;;;;;21.50;10.35;;;;;;;12.27;65.96;100157.66;10224095;28;20066;-60
2024/02/15 09:03:12;;;;;;;13.93;6.05;;;;;;;12.36;65.95;100166.75;10220567;28;20097;-59
2024/02/15 09:08:15;;;;;;;21.70;12.07;;;;;;;12.29;65.84;100163.69;10224889;28;20547;-59
2024/02/15 09:13:17;;;;;;;25.77;12.52;;;;;;;12.24;65.68;100168.31;10220204;28;20054;-59
2024/02/15 09:18:22;;;;;;;6.93;3.33;;;;;;;12.23;65.93;100169.28;10256024;28;20055;-60
2024/02/15 09:23:25;;;;;;;6.38;2.30;;;;;;;12.24;65.69;100157.00;10223218;28;20138;-59
2024/02/15 09:28:27;;;;;;;4.15;2.55;;;;;;;12.46;65.49;100145.06;10222496;28;20049;-60
2024/02/15 09:33:29;;;;;;;5.60;2.40;;;;;;;12.75;64.91;100141.41;10222627;28;20051;-60
2024/02/15 09:38:31;;;;;;;4.90;2.10;;;;;;;13.01;64.43;100149.34;10223891;28;20051;-60
2024/02/15 09:43:35;;;;;;;6.25;2.63;;;;;;;13.06;64.57;100148.13;10224514;28;20101;-60
2024/02/15 09:48:40;;;;;;;5.68;2.53;;;;;;;13.00;64.43;100140.66;10223881;28;20058;-59
2024/02/15 09:53:42;;;;;;;5.45;2.53;;;;;;;12.98;64.50;100131.19;10224480;28;20053;-60
2024/02/15 09:58:44;;;;;;;8.13;2.60;;;;;;;12.88;64.86;100128.34;10224659;28;20047;-59
2024/02/15 10:03:50;;;;;;;3.97;2.35;;;;;;;12.91;64.37;100139.47;10223282;28;20158;-59
2024/02/15 10:08:52;;;;;;;4.93;2.72;;;;;;;12.97;64.47;100138.22;10223307;28;20073;-59
2024/02/15 10:13:54;;;;;;;7.20;3.83;;;;;;;13.10;64.56;100138.25;10229611;28;20418;-60
2024/02/15 10:19:09;;;;;;;5.45;3.08;;;;;;;13.03;64.18;100137.00;10230749;28;20054;-61
2024/02/15 10:24:12;;;;;;;5.57;2.47;;;;;;;13.09;64.57;100139.22;10229156;28;20051;-61
2024/02/15 10:29:17;;;;;;;4.75;2.45;;;;;;;13.54;64.06;100128.22;10229084;28;20079;-61
2024/02/15 10:34:20;;;;;;;11.98;3.40;;;;;;;13.86;63.33;100124.19;10229505;28;20050;-60
2024/02/15 10:39:23;;;;;;;6.05;3.33;;;;;;;14.13;62.91;100110.88;10226317;28;20054;-61
2024/02/15 10:44:26;;;;;;;4.85;2.75;;;;;;;14.43;62.21;100099.00;10230576;28;20061;-60
2024/02/15 10:49:28;;;;;;;6.90;3.15;;;;;;;14.42;61.70;100094.69;10230155;28;20047;-60
2024/02/15 10:55:14;;;;;;;6.10;2.95;;;;;;;14.50;61.47;100086.25;10227900;28;20125;-61
2024/02/15 11:00:25;;;;;;;3.50;2.10;;;;;;;14.42;61.57;100083.31;10349533;28;20054;-60
2024/02/15 11:05:31;;;;;;;10.85;2.83;;;;;;;14.55;61.70;100084.97;10252533;28;20048;-60
2024/02/15 11:10:37;;;;;;;8.13;2.83;;;;;;;14.77;61.44;100097.41;10228106;29;21044;-60
2024/02/15 11:15:42;;;;;;;4.32;2.28;;;;;;;14.74;61.50;100088.88;10227836;28;20050;-61
2024/02/15 11:20:44;;;;;;;6.60;2.97;;;;;;;14.63;61.23;100079.16;10228834;28;20051;-60
2024/02/15 11:25:46;;;;;;;5.95;3.17;;;;;;;14.64;61.34;100069.44;10226750;28;20117;-60
2024/02/15 11:30:51;;;;;;;5.82;2.47;;;;;;;14.77;60.86;100057.06;10226591;28;20055;-60
2024/02/15 11:36:02;;;;;;;4.55;2.38;;;;;;;14.98;59.84;100052.81;10227514;28;20054;-60
2024/02/15 11:41:06;;;;;;;6.90;3.17;;;;;;;15.13;60.43;100043.72;10227006;28;20043;-59
2024/02/15 11:46:13;;;;;;;5.55;3.25;;;;;;;14.92;60.45;100037.47;10227828;28;20047;-60
2024/02/15 11:51:47;;;;;;;5.25;2.60;;;;;;;14.94;59.32;100038.22;10227772;28;20120;-60
2024/02/15 11:57:10;;;;;;;5.38;2.65;;;;;;;15.17;60.03;100032.00;10209986;28;20062;-59
2024/02/15 12:23:41;;;;;;;5.05;2.30;;;;;;;16.22;57.45;100005.06;10223555;28;21091;-59
2024/02/15 12:28:43;;;;;;;4.43;2.17;;;;;;;16.41;57.57;99992.97;10226886;28;21110;-59
2024/02/15 12:34:06;;;;;;;3.10;1.67;;;;;;;16.74;54.41;99977.84;10218097;28;20047;-58
2024/02/15 12:39:14;;;;;;;3.90;1.45;;;;;;;16.71;54.36;99977.28;10224188;28;20059;-59
2024/02/15 12:44:17;;;;;;;2.55;1.13;;;;;;;16.65;54.50;99962.75;10222900;28;20495;-59
2024/02/15 12:49:21;;;;;;;1.20;0.80;;;;;;;16.79;53.60;99966.91;10219346;28;20062;-59
2024/02/15 12:54:24;;;;;;;3.97;1.77;;;;;;;16.82;53.98;99963.97;10221358;28;20057;-60
2024/02/15 12:59:26;;;;;;;1.88;1.08;;;;;;;16.77;53.32;99967.00;10228590;28;20087;-60
2024/02/15 13:04:28;;;;;;;1.52;0.90;;;;;;;16.79;53.28;99961.63;10224092;28;20058;-60
2024/02/15 13:09:30;;;;;;;1.42;0.93;;;;;;;16.77;52.16;99961.72;10223821;28;20569;-60
2024/02/15 13:14:35;;;;;;;2.90;0.90;;;;;;;16.83;52.13;99950.63;10223386;28;20043;-60
2024/02/15 13:19:37;;;;;;;1.17;0.93;;;;;;;16.67;52.03;99944.97;10225002;28;20043;-58
2024/02/15 13:24:40;;;;;;;2.80;0.93;;;;;;;16.50;51.53;99929.75;10227009;28;20074;-60
2024/02/15 13:29:45;;;;;;;2.00;0.82;;;;;;;16.30;51.47;99929.72;10225815;28;20047;-60
2024/02/15 13:34:51;;;;;;;2.42;0.93;;;;;;;16.30;51.26;99925.28;10225620;28;20039;-59
2024/02/15 13:39:53;;;;;;;1.45;0.95;;;;;;;16.49;51.28;99924.59;10225616;28;20070;-60
2024/02/15 13:44:56;;;;;;;1.75;1.00;;;;;;;16.43;50.91;99910.09;10224304;28;20050;-60
2024/02/15 13:49:58;;;;;;;1.33;1.02;;;;;;;16.28;50.71;99905.25;10228824;28;20478;-59
2024/02/15 13:55:00;;;;;;;2.08;1.00;;;;;;;16.75;51.92;99894.19;10230645;28;20049;-64
2024/02/15 14:00:05;;;;;;;0.85;0.70;;;;;;;17.47;50.84;99893.06;10229737;28;20117;-66
2024/02/15 14:05:13;;;;;;;1.98;1.00;;;;;;;17.79;50.07;99882.25;10227446;28;20082;-62
2024/02/15 14:10:18;;;;;;;5.60;0.82;;;;;;;18.15;50.03;99880.72;10228044;28;20213;-61
2024/02/15 14:15:21;;;;;;;1.38;0.90;;;;;;;18.50;49.23;99870.38;10235793;28;20072;-62
2024/02/15 14:20:23;;;;;;;10.13;1.60;;;;;;;18.27;49.06;99861.09;10228652;28;20043;-66
2024/02/15 14:25:25;;;;;;;13.18;2.65;;;;;;;17.98;49.97;99861.09;10227565;28;20140;-66
2024/02/15 14:35:48;;;;;;;;;;;;;;;17.90;48.93;99863.59;10230986;28;20043;-60
2024/02/15 14:40:52;;;;;;;20.77;2.88;;;;;;;17.66;51.34;99856.06;10232328;28;20703;-62
2024/02/15 14:45:56;;;;;;;5.57;1.50;;;;;;;17.42;50.93;99862.72;10220395;28;20063;-63
2024/02/15 14:51:00;;;;;;;4.35;1.38;;;;;;;17.23;50.70;99862.63;10221430;28;20051;-64
2024/02/15 14:56:04;;;;;;;3.65;1.02;;;;;;;16.87;50.93;99843.75;10226966;28;20047;-61
2024/02/15 15:01:07;;;;;;;3.28;1.63;;;;;;;16.54;50.91;99832.63;10223078;28;20765;-61
2024/02/15 15:16:53;;;;;;;6.40;2.50;;;;;;;16.59;50.63;99814.59;10228423;28;20062;-62
2024/02/15 15:21:57;;;;;;;5.72;1.75;;;;;;;16.44;51.06;99813.28;10203450;28;20054;-65
2024/02/15 15:26:59;;;;;;;7.57;2.00;;;;;;;16.66;50.40;99823.66;10230612;28;20074;-64
2024/02/15 15:32:01;;;;;;;2.58;0.90;;;;;;;16.54;50.06;99816.78;10222049;28;20039;-62
2024/02/15 15:37:07;;;;;;;3.22;0.85;;;;;;;16.02;50.62;99813.25;10228652;28;20050;-63
2024/02/15 15:42:09;;;;;;;2.65;1.23;;;;;;;15.39;51.28;99823.81;10223562;28;20081;-58
2024/02/15 15:47:11;;;;;;;2.63;1.23;;;;;;;14.94;51.60;99820.44;10225836;28;20059;-58
2024/02/15 15:52:13;;;;;;;2.30;1.00;;;;;;;14.63;52.06;99807.19;10224144;28;20053;-59
2024/02/15 15:57:14;;;;;;;3.22;1.13;;;;;;;14.39;52.35;99810.75;10226673;28;20407;-58
2024/02/15 16:02:17;;;;;;;2.15;1.20;;;;;;;14.13;53.06;99803.16;10225131;28;20428;-58
2024/02/15 16:07:19;;;;;;;3.40;0.90;;;;;;;14.05;53.02;99798.50;10224728;28;20055;-57
2024/02/15 16:12:21;;;;;;;3.05;0.80;;;;;;;13.96;53.12;99801.84;10226710;28;20397;-59
2024/02/15 16:17:24;;;;;;;1.77;1.00;;;;;;;13.89;53.47;99808.50;10224046;28;20112;-59
2024/02/15 16:22:26;;;;;;;2.33;1.45;;;;;;;13.81;53.72;99803.00;10224659;28;20079;-59
2024/02/15 16:27:28;;;;;;;2.05;1.10;;;;;;;13.80;54.05;99798.66;10225837;28;20128;-60
2024/02/15 16:32:35;;;;;;;2.08;1.25;;;;;;;13.77;53.96;99809.44;10223852;29;20051;-59
2024/02/15 16:37:39;;;;;;;3.15;1.30;;;;;;;13.66;54.31;99796.25;10223972;28;20593;-59
2024/02/15 16:42:42;;;;;;;2.55;1.30;;;;;;;13.65;54.49;99797.19;10222468;28;20061;-59
2024/02/15 16:47:52;;;;;;;4.57;1.80;;;;;;;13.62;54.94;99789.53;10222042;28;20044;-59
2024/02/15 16:52:56;;;;;;;2.67;1.23;;;;;;;13.53;54.70;99796.34;10221112;28;20048;-63
2024/02/15 16:58:02;;;;;;;3.63;1.35;;;;;;;13.46;55.22;99797.72;10222100;28;20145;-63
2024/02/15 17:03:05;;;;;;;4.25;1.73;;;;;;;13.40;55.54;99802.56;10221584;28;20058;-62
2024/02/15 17:08:09;;;;;;;3.70;2.10;;;;;;;13.31;55.36;99790.91;10226667;28;20055;-62
2024/02/15 17:13:11;;;;;;;5.75;2.30;;;;;;;13.00;56.18;99775.72;10221294;28;20065;-62
2024/02/15 17:18:13;;;;;;;2.70;1.60;;;;;;;12.70;56.51;99767.44;10223665;28;20546;-62
2024/02/15 17:23:23;;;;;;;3.15;1.42;;;;;;;12.53;56.67;99750.25;10220367;28;20135;-62
2024/02/15 17:28:25;;;;;;;4.00;1.50;;;;;;;12.43;57.06;99737.88;10193224;28;20043;-61
2024/02/15 17:33:28;;;;;;;4.32;1.75;;;;;;;12.43;57.27;99738.75;10220144;28;20054;-63
2024/02/15 17:38:32;;;;;;;3.97;1.55;;;;;;;12.50;57.08;99739.97;10224446;28;20077;-63
2024/02/15 17:43:35;;;;;;;6.90;2.25;;;;;;;12.37;57.82;99749.66;10216786;28;20538;-65
2024/02/15 17:48:37;;;;;;;5.05;1.58;;;;;;;12.32;57.69;99749.13;10222420;28;20078;-64
2024/02/15 17:53:41;;;;;;;4.90;1.58;;;;;;;12.31;57.77;99752.72;10221764;28;20083;-64
2024/02/15 17:58:45;;;;;;;4.88;1.70;;;;;;;12.35;57.91;99764.66;10223168;28;20422;-63
2024/02/15 18:03:47;;;;;;;8.75;3.08;;;;;;;12.40;57.93;99765.16;10222055;28;20044;-63
2024/02/15 18:08:50;;;;;;;3.33;1.70;;;;;;;12.38;58.02;99777.53;10219482;28;20058;-63
2024/02/15 18:13:52;;;;;;;3.33;1.92;;;;;;;12.39;57.90;99766.13;10223866;28;20039;-63
2024/02/15 18:18:55;;;;;;;4.32;1.83;;;;;;;12.41;58.00;99772.09;10224299;28;20057;-62
2024/02/15 18:23:59;;;;;;;6.72;3.17;;;;;;;12.38;58.36;99769.69;10220938;28;20047;-62
2024/02/15 18:29:02;;;;;;;6.00;2.97;;;;;;;12.30;58.57;99774.63;10223031;28;20066;-62
2024/02/15 18:34:07;;;;;;;5.07;2.42;;;;;;;12.12;58.81;99765.38;10230222;28;20389;-63
2024/02/15 18:39:10;;;;;;;5.80;2.60;;;;;;;12.15;58.99;99760.75;10222078;28;20411;-62
2024/02/15 18:44:12;;;;;;;5.20;2.53;;;;;;;12.14;59.06;99763.47;10224025;28;20270;-62
2024/02/15 18:49:14;;;;;;;7.43;3.17;;;;;;;12.03;58.99;99750.25;10233649;28;20059;-62
2024/02/15 18:54:32;;;;;;;4.68;2.10;;;;;;;12.01;59.19;99739.88;10228449;28;20110;-63
2024/02/15 18:59:37;;;;;;;5.57;2.53;;;;;;;12.07;59.14;99733.38;10227428;28;20058;-62
2024/02/15 19:04:39;;;;;;;4.28;2.45;;;;;;;11.95;59.47;99732.44;10212703;28;20047;-62
2024/02/15 19:09:41;;;;;;;5.63;2.60;;;;;;;11.88;59.62;99717.25;10218380;28;20088;-62
2024/02/15 19:14:43;;;;;;;4.50;2.25;;;;;;;11.66;60.02;99703.94;10225161;28;20047;-62
2024/02/15 19:19:45;;;;;;;6.28;2.78;;;;;;;11.56;60.12;99715.97;10222792;28;20055;-62
2024/02/15 19:24:50;;;;;;;5.80;2.83;;;;;;;11.42;60.98;99724.75;10222879;28;20408;-62
2024/02/15 19:29:53;;;;;;;6.05;3.25;;;;;;;11.35;60.98;99715.63;10211063;28;20047;-61
2024/02/15 19:34:55;;;;;;;6.68;3.63;;;;;;;11.37;60.69;99729.47;10223789;28;20680;-61
2024/02/15 19:39:58;;;;;;;8.65;3.30;;;;;;;11.40;60.68;99713.53;10218969;28;20078;-62
2024/02/15 19:45:00;;;;;;;7.05;3.38;;;;;;;11.42;60.80;99711.66;10222541;28;20059;-62
2024/02/15 19:50:03;;;;;;;7.45;3.42;;;;;;;11.46;60.58;99697.41;10225289;28;20058;-62
2024/02/15 19:55:06;;;;;;;7.57;3.10;;;;;;;11.45;60.84;99711.47;10223872;28;20410;-62
2024/02/15 20:00:13;;;;;;;9.32;5.28;;;;;;;11.46;60.95;99701.81;10225581;28;20124;-62
2024/02/15 20:05:17;;;;;;;6.07;3.05;;;;;;;11.50;61.10;99698.06;10224681;28;20487;-62
2024/02/15 20:10:19;;;;;;;7.63;3.10;;;;;;;11.57;60.98;99699.31;10226526;28;20047;-62
2024/02/15 20:15:21;;;;;;;7.38;2.75;;;;;;;11.35;60.89;99692.06;10224628;28;20113;-61
2024/02/15 20:20:23;;;;;;;5.35;2.55;;;;;;;11.23;61.49;99682.41;10222006;28;20051;-62
2024/02/15 20:25:26;;;;;;;4.40;2.47;;;;;;;11.09;61.71;99691.16;10222841;28;20059;-63
2024/02/15 20:30:28;;;;;;;4.32;2.03;;;;;;;11.09;61.79;99690.34;10223624;28;20058;-61
2024/02/15 20:35:30;;;;;;;6.88;2.97;;;;;;;11.12;61.86;99693.59;10237843;28;20054;-62
2024/02/15 20:40:32;;;;;;;7.65;3.70;;;;;;;11.00;62.01;99683.03;10223027;28;20051;-62
2024/02/15 20:45:34;;;;;;;12.27;4.88;;;;;;;10.98;62.09;99684.91;10221323;28;20069;-62
2024/02/15 20:50:36;;;;;;;6.43;2.83;;;;;;;10.96;62.11;99684.19;10216546;28;20054;-61
2024/02/15 20:55:39;;;;;;;4.22;2.50;;;;;;;10.93;62.29;99694.84;10214716;28;20270;-62
2024/02/15 21:00:41;;;;;;;5.32;2.40;;;;;;;10.90;62.53;99685.44;10217171;28;20496;-62
2024/02/15 21:05:43;;;;;;;6.60;2.60;;;;;;;10.90;62.39;99688.03;10218755;28;20039;-61
2024/02/15 21:10:45;;;;;;;5.57;2.22;;;;;;;10.86;62.39;99685.72;10219994;28;20389;-62
2024/02/15 21:15:47;;;;;;;3.63;2.28;;;;;;;10.67;62.79;99686.06;10220692;28;20043;-62
2024/02/15 21:20:49;;;;;;;8.25;3.75;;;;;;;10.42;62.81;99678.06;10220186;28;20047;-61
2024/02/15 21:25:52;;;;;;;6.90;2.75;;;;;;;10.32;63.18;99680.44;10220864;28;20131;-63
2024/02/15 21:30:55;;;;;;;6.63;2.75;;;;;;;10.23;63.39;99665.34;10219158;28;20392;-63
2024/02/15 21:35:57;;;;;;;5.80;3.03;;;;;;;10.13;63.56;99663.41;10223034;28;20048;-61
2024/02/15 21:40:59;;;;;;;9.25;3.50;;;;;;;10.12;63.60;99666.94;10220107;28;20063;-63
2024/02/15 21:46:02;;;;;;;9.88;4.28;;;;;;;10.01;63.58;99658.94;10221459;28;20043;-62
2024/02/15 21:51:05;;;;;;;9.75;4.45;;;;;;;9.90;63.86;99663.97;10219900;28;20051;-63
2024/02/15 21:56:07;;;;;;;10.75;4.00;;;;;;;9.83;63.82;99662.69;10222466;28;20055;-63
2024/02/15 22:01:09;;;;;;;7.43;3.28;;;;;;;9.72;64.17;99659.84;10220743;28;20051;-63
2024/02/15 22:06:12;;;;;;;4.80;1.88;;;;;;;9.66;64.25;99661.06;10222016;28;20051;-64
2024/02/15 22:11:14;;;;;;;4.15;1.90;;;;;;;9.60;64.46;99656.19;10227048;28;20074;-63
2024/02/15 22:16:16;;;;;;;9.00;2.58;;;;;;;9.56;64.60;99654.69;10223845;28;20058;-64
2024/02/15 22:21:18;;;;;;;3.65;2.15;;;;;;;9.52;64.62;99656.63;10227925;28;20043;-63
2024/02/15 22:26:21;;;;;;;7.72;3.10;;;;;;;9.48;64.79;99657.75;10230309;28;20086;-63
2024/02/15 22:31:23;;;;;;;8.68;3.30;;;;;;;9.45;64.58;99650.13;10218659;28;20057;-63
2024/02/15 22:36:27;;;;;;;5.32;2.50;;;;;;;9.43;64.85;99654.59;10224900;28;20051;-63
2024/02/15 22:41:30;;;;;;;3.33;1.90;;;;;;;9.46;64.86;99657.00;10227071;28;20062;-63
2024/02/15 22:46:32;;;;;;;8.48;3.08;;;;;;;9.56;64.83;99652.09;10228159;28;20680;-63
2024/02/15 22:51:39;;;;;;;5.03;2.38;;;;;;;9.61;64.66;99660.47;10228599;28;20051;-63
2024/02/15 22:56:41;;;;;;;3.97;1.77;;;;;;;9.60;64.81;99653.59;10225405;28;20053;-63
2024/02/15 23:01:44;;;;;;;4.40;1.98;;;;;;;9.73;64.68;99658.94;10214882;28;20067;-63
2024/02/15 23:06:48;;;;;;;3.78;1.98;;;;;;;9.77;64.47;99661.25;10226037;28;20043;-63
2024/02/15 23:11:50;;;;;;;6.47;2.70;;;;;;;9.79;64.34;99654.16;10221209;28;20067;-63
2024/02/15 23:16:52;;;;;;;6.18;2.20;;;;;;;9.83;64.28;99663.50;10227209;28;20486;-63
2024/02/15 23:21:55;;;;;;;6.10;2.55;;;;;;;9.87;64.25;99657.16;10226135;28;20061;-63
2024/02/15 23:26:57;;;;;;;5.93;2.72;;;;;;;9.85;63.99;99652.97;10226699;28;20148;-63
2024/02/15 23:31:59;;;;;;;7.90;2.30;;;;;;;9.78;64.10;99654.25;10226427;28;20508;-63
2024/02/15 23:42:22;;;;;;;3.30;1.97;;;;;;;9.79;64.18;99653.34;10224873;28;20079;-63
2024/02/15 23:47:24;;;;;;;7.53;2.72;;;;;;;9.76;64.01;99651.75;10218991;28;20159;-63
2024/02/15 23:52:27;;;;;;;2.92;1.73;;;;;;;9.65;64.24;99657.59;10227911;28;20062;-62
2024/02/15 23:57:29;;;;;;;8.50;2.05;;;;;;;9.68;64.41;99655.75;10224670;28;20050;-63
